Time;durP1;ratioP1;P1;durP2;ratioP2;P2;SDS_P1;SDS_P2;PMS_P1;PMS_P2;Temp;Humidity;BMP_temperature;BMP_pressure;BME280_temperature;BME280_humidity;BME280_pressure;Samples;Min_cycle;Max_cycle;Signal;HPM_P1;HPM_P2
2023/07/24 00:01:00;;;;;;;;;;;;;;;;;;5048529;28;19921;-66
2023/07/24 00:03:26;;;;;;;;;;;;;;;;;;5043603;28;20435;-66
2023/07/24 00:05:52;;;;;;;;;;;;;;;;;;5051376;28;19936;-67
2023/07/24 00:08:18;;;;;;;;;;;;;;;;;;5048337;28;19933;-66
2023/07/24 00:10:44;;;;;;;;;;;;;;;;;;5034396;28;19951;-66
2023/07/24 00:13:10;;;;;;;;;;;;;;;;;;5050217;28;19925;-67
2023/07/24 00:15:36;;;;;;;;;;;;;;;;;;5040410;28;19925;-67
2023/07/24 00:18:02;;;;;;;;;;;;;;;;;;5045380;28;19933;-67
2023/07/24 00:20:27;;;;;;;;;;;;;;;;;;5051430;28;19927;-67
2023/07/24 00:22:53;;;;;;;;;;;;;;;;;;5053022;28;20397;-66
2023/07/24 00:25:19;;;;;;;;;;;;;;;;;;5053533;28;19928;-66
2023/07/24 00:27:45;;;;;;;;;;;;;;;;;;5051062;28;19951;-67
2023/07/24 00:30:11;;;;;;;;;;;;;;;;;;5049638;28;19931;-66
2023/07/24 00:32:37;;;;;;;;;;;;;;;;;;5054256;28;19924;-67
2023/07/24 00:35:03;;;;;;;;;;;;;;;;;;5067815;28;19928;-67
2023/07/24 00:37:29;;;;;;;;;;;;;;;;;;5051417;28;19971;-66
2023/07/24 00:39:55;;;;;;;;;;;;;;;;;;5033809;28;20375;-67
2023/07/24 00:42:21;;;;;;;;;;;;;;;;;;5053108;28;19963;-67
2023/07/24 00:44:46;;;;;;;;;;;;;;;;;;5052604;28;20015;-66
2023/07/24 00:47:12;;;;;;;;;;;;;;;;;;5051480;28;19947;-66
2023/07/24 00:49:38;;;;;;;;;;;;;;;;;;5053214;28;20004;-67
2023/07/24 00:52:04;;;;;;;;;;;;;;;;;;5069612;28;19920;-67
2023/07/24 00:54:30;;;;;;;;;;;;;;;;;;5034964;28;19968;-67
2023/07/24 00:56:56;;;;;;;;;;;;;;;;;;5051376;28;20349;-67
2023/07/24 00:59:22;;;;;;;;;;;;;;;;;;5052821;28;19974;-68
2023/07/24 01:01:48;;;;;;;;;;;;;;;;;;5033163;28;19921;-68
2023/07/24 01:04:14;;;;;;;;;;;;;;;;;;5052809;28;20309;-66
2023/07/24 01:06:39;;;;;;;;;;;;;;;;;;5051182;28;19940;-65
2023/07/24 01:09:05;;;;;;;;;;;;;;;;;;5053587;28;19924;-66
2023/07/24 01:11:31;;;;;;;;;;;;;;;;;;5052702;28;20355;-65
2023/07/24 01:13:57;;;;;;;;;;;;;;;;;;5052790;28;19928;-66
2023/07/24 01:16:23;;;;;;;;;;;;;;;;;;5064326;28;20124;-67
2023/07/24 01:18:49;;;;;;;;;;;;;;;;;;5049175;28;19928;-67
2023/07/24 01:21:15;;;;;;;;;;;;;;;;;;5037729;28;20046;-68
2023/07/24 01:23:41;;;;;;;;;;;;;;;;;;5051815;28;19921;-67
2023/07/24 01:26:07;;;;;;;;;;;;;;;;;;5052430;28;19932;-67
2023/07/24 01:28:32;;;;;;;;;;;;;;;;;;5061678;28;19925;-67
2023/07/24 01:30:58;;;;;;;;;;;;;;;;;;5031297;28;19967;-67
2023/07/24 01:33:24;;;;;;;;;;;;;;;;;;5048948;28;20009;-66
2023/07/24 01:35:50;;;;;;;;;;;;;;;;;;5052406;28;20023;-67
2023/07/24 01:38:16;;;;;;;;;;;;;;;;;;5054626;28;20065;-67
2023/07/24 01:40:42;;;;;;;;;;;;;;;;;;5033074;28;20035;-66
2023/07/24 01:43:08;;;;;;;;;;;;;;;;;;5051305;28;19921;-66
2023/07/24 01:45:35;;;;;;;;;;;;;;;;;;5047481;28;19947;-67
2023/07/24 01:48:01;;;;;;;;;;;;;;;;;;5051058;28;20019;-67
2023/07/24 01:50:27;;;;;;;;;;;;;;;;;;5049648;28;20134;-67
2023/07/24 01:52:53;;;;;;;;;;;;;;;;;;5049610;28;19929;-67
2023/07/24 01:55:19;;;;;;;;;;;;;;;;;;5051694;28;19921;-66
2023/07/24 01:57:45;;;;;;;;;;;;;;;;;;5049477;28;19935;-67
2023/07/24 02:00:11;;;;;;;;;;;;;;;;;;5031936;28;20427;-67
2023/07/24 02:02:36;;;;;;;;;;;;;;;;;;5051949;28;19931;-67
2023/07/24 02:05:02;;;;;;;;;;;;;;;;;;5050104;28;19925;-66
2023/07/24 02:07:28;;;;;;;;;;;;;;;;;;5051065;28;19978;-66
2023/07/24 02:09:54;;;;;;;;;;;;;;;;;;5049217;28;20456;-66
2023/07/24 02:12:20;;;;;;;;;;;;;;;;;;5048744;28;19929;-66
2023/07/24 02:14:49;;;;;;;;;;;;;;;;;;5032246;28;19976;-66
2023/07/24 02:17:15;;;;;;;;;;;;;;;;;;5048667;28;20275;-67
2023/07/24 02:19:41;;;;;;;;;;;;;;;;;;5049618;28;19931;-67
2023/07/24 02:22:07;;;;;;;;;;;;;;;;;;5051487;28;20011;-67
2023/07/24 02:24:33;;;;;;;;;;;;;;;;;;5052222;28;19925;-67
2023/07/24 02:26:59;;;;;;;;;;;;;;;;;;5053654;28;19956;-67
2023/07/24 02:29:24;;;;;;;;;;;;;;;;;;5028832;28;19920;-67
2023/07/24 02:31:50;;;;;;;;;;;;;;;;;;5047341;28;19931;-67
2023/07/24 02:34:16;;;;;;;;;;;;;;;;;;5051299;28;19921;-66
2023/07/24 02:36:42;;;;;;;;;;;;;;;;;;5044616;28;19940;-66
2023/07/24 02:39:08;;;;;;;;;;;;;;;;;;5042663;28;19932;-66
2023/07/24 02:41:34;;;;;;;;;;;;;;;;;;5051963;28;20016;-66
2023/07/24 02:44:00;;;;;;;;;;;;;;;;;;5051087;28;19928;-67
2023/07/24 02:46:26;;;;;;;;;;;;;;;;;;5048980;28;19999;-67
2023/07/24 02:48:52;;;;;;;;;;;;;;;;;;5051112;28;19920;-66
2023/07/24 02:51:18;;;;;;;;;;;;;;;;;;5051833;28;19931;-67
2023/07/24 02:53:44;;;;;;;;;;;;;;;;;;5044468;28;19928;-66
2023/07/24 02:56:10;;;;;;;;;;;;;;;;;;5031317;28;19931;-67
2023/07/24 02:58:36;;;;;;;;;;;;;;;;;;5035165;28;19925;-67
2023/07/24 03:01:01;;;;;;;;;;;;;;;;;;5049619;28;19924;-66
2023/07/24 03:03:27;;;;;;;;;;;;;;;;;;5049762;28;19967;-67
2023/07/24 03:05:53;;;;;;;;;;;;;;;;;;5050485;28;19960;-66
2023/07/24 03:08:19;;;;;;;;;;;;;;;;;;5049737;28;20805;-67
2023/07/24 03:10:45;;;;;;;;;;;;;;;;;;5049272;28;20023;-67
2023/07/24 03:13:11;;;;;;;;;;;;;;;;;;5049102;28;19930;-67
2023/07/24 03:15:37;;;;;;;;;;;;;;;;;;5049989;28;19932;-67
2023/07/24 03:18:03;;;;;;;;;;;;;;;;;;5049134;28;19925;-67
2023/07/24 03:20:29;;;;;;;;;;;;;;;;;;5049615;28;20345;-67
2023/07/24 03:22:54;;;;;;;;;;;;;;;;;;5049918;28;19925;-66
2023/07/24 03:25:20;;;;;;;;;;;;;;;;;;5050605;28;20023;-66
2023/07/24 03:27:46;;;;;;;;;;;;;;;;;;5047681;28;19928;-66
2023/07/24 03:30:12;;;;;;;;;;;;;;;;;;5044811;28;19955;-67
2023/07/24 03:32:38;;;;;;;;;;;;;;;;;;5053666;28;19924;-67
2023/07/24 03:35:04;;;;;;;;;;;;;;;;;;5050173;28;19929;-65
2023/07/24 03:37:30;;;;;;;;;;;;;;;;;;5048200;28;19928;-66
2023/07/24 03:39:56;;;;;;;;;;;;;;;;;;5050740;28;20371;-66
2023/07/24 03:42:22;;;;;;;;;;;;;;;;;;5054445;28;19959;-67
2023/07/24 03:44:48;;;;;;;;;;;;;;;;;;5053850;28;19928;-67
2023/07/24 03:47:14;;;;;;;;;;;;;;;;;;5052495;28;20405;-66
2023/07/24 03:49:40;;;;;;;;;;;;;;;;;;5054541;28;19928;-66
2023/07/24 03:52:06;;;;;;;;;;;;;;;;;;5054058;28;19920;-66
2023/07/24 03:54:31;;;;;;;;;;;;;;;;;;5048602;28;20435;-65
2023/07/24 03:56:57;;;;;;;;;;;;;;;;;;5054639;28;19928;-67
2023/07/24 03:59:23;;;;;;;;;;;;;;;;;;5051569;28;20290;-66
2023/07/24 04:01:49;;;;;;;;;;;;;;;;;;5052142;28;19982;-66
2023/07/24 04:04:15;;;;;;;;;;;;;;;;;;5038783;28;19929;-66
2023/07/24 04:06:41;;;;;;;;;;;;;;;;;;5053629;28;19932;-67
2023/07/24 04:09:07;;;;;;;;;;;;;;;;;;5051325;28;20290;-67
2023/07/24 04:11:33;;;;;;;;;;;;;;;;;;5036096;28;20009;-67
2023/07/24 04:13:59;;;;;;;;;;;;;;;;;;5053234;28;19931;-68
2023/07/24 04:16:25;;;;;;;;;;;;;;;;;;5051337;28;19966;-65
2023/07/24 04:18:51;;;;;;;;;;;;;;;;;;5035433;28;20015;-66
2023/07/24 04:21:16;;;;;;;;;;;;;;;;;;5034378;28;20012;-66
2023/07/24 04:23:42;;;;;;;;;;;;;;;;;;5053508;28;19921;-66
2023/07/24 04:26:08;;;;;;;;;;;;;;;;;;5053561;28;19935;-67
2023/07/24 04:28:34;;;;;;;;;;;;;;;;;;5066205;28;19928;-67
2023/07/24 04:31:01;;;;;;;;;;;;;;;;;;5049302;28;20313;-66
2023/07/24 04:33:27;;;;;;;;;;;;;;;;;;5055318;28;20305;-66
2023/07/24 04:35:53;;;;;;;;;;;;;;;;;;5064437;28;19939;-66
2023/07/24 04:38:19;;;;;;;;;;;;;;;;;;5065908;28;20335;-66
2023/07/24 04:40:45;;;;;;;;;;;;;;;;;;5050526;28;19967;-67
2023/07/24 04:43:11;;;;;;;;;;;;;;;;;;5052883;28;19928;-65
2023/07/24 04:45:37;;;;;;;;;;;;;;;;;;5049200;28;20262;-66
2023/07/24 04:48:03;;;;;;;;;;;;;;;;;;5058122;28;19989;-67
2023/07/24 04:50:29;;;;;;;;;;;;;;;;;;5065186;28;19921;-66
2023/07/24 04:52:55;;;;;;;;;;;;;;;;;;5034444;28;20346;-66
2023/07/24 04:55:21;;;;;;;;;;;;;;;;;;5050103;28;19967;-66
2023/07/24 04:57:47;;;;;;;;;;;;;;;;;;5051155;28;19921;-66
2023/07/24 05:00:13;;;;;;;;;;;;;;;;;;5025030;28;19929;-67
2023/07/24 05:02:39;;;;;;;;;;;;;;;;;;5049253;28;19979;-66
2023/07/24 05:05:04;;;;;;;;;;;;;;;;;;5046235;28;19928;-66
2023/07/24 05:07:30;;;;;;;;;;;;;;;;;;5047951;28;19932;-67
2023/07/24 05:09:56;;;;;;;;;;;;;;;;;;5058040;28;20007;-66
2023/07/24 05:12:22;;;;;;;;;;;;;;;;;;5045993;28;19932;-66
2023/07/24 05:14:48;;;;;;;;;;;;;;;;;;5052217;28;19920;-66
2023/07/24 05:17:14;;;;;;;;;;;;;;;;;;5046859;28;20051;-66
2023/07/24 05:19:40;;;;;;;;;;;;;;;;;;5048697;28;20358;-67
2023/07/24 05:22:06;;;;;;;;;;;;;;;;;;5047418;28;19971;-67
2023/07/24 05:24:32;;;;;;;;;;;;;;;;;;5030653;28;20279;-67
2023/07/24 05:26:58;;;;;;;;;;;;;;;;;;5051583;28;19921;-67
2023/07/24 05:29:23;;;;;;;;;;;;;;;;;;5052415;28;19925;-66
2023/07/24 05:31:49;;;;;;;;;;;;;;;;;;5050713;28;19929;-66
2023/07/24 05:34:15;;;;;;;;;;;;;;;;;;5026291;28;19921;-66
2023/07/24 05:36:41;;;;;;;;;;;;;;;;;;5033535;28;19921;-66
2023/07/24 05:39:07;;;;;;;;;;;;;;;;;;5052453;28;20302;-66
2023/07/24 05:41:33;;;;;;;;;;;;;;;;;;5051138;28;19925;-67
2023/07/24 05:43:59;;;;;;;;;;;;;;;;;;5052045;28;20318;-66
2023/07/24 05:46:25;;;;;;;;;;;;;;;;;;5046011;28;19928;-66
2023/07/24 05:48:51;;;;;;;;;;;;;;;;;;5033442;28;19921;-66
2023/07/24 05:51:16;;;;;;;;;;;;;;;;;;5027851;28;20430;-66
2023/07/24 05:53:42;;;;;;;;;;;;;;;;;;5049194;28;19924;-66
2023/07/24 05:56:08;;;;;;;;;;;;;;;;;;5046973;28;20496;-65
2023/07/24 05:58:34;;;;;;;;;;;;;;;;;;5030677;28;20406;-66
2023/07/24 06:01:00;;;;;;;;;;;;;;;;;;5050393;28;19938;-67
2023/07/24 06:03:26;;;;;;;;;;;;;;;;;;5032635;28;20012;-66
2023/07/24 06:05:52;;;;;;;;;;;;;;;;;;5047839;28;20491;-66
2023/07/24 06:08:18;;;;;;;;;;;;;;;;;;5032328;28;19933;-66
2023/07/24 06:10:44;;;;;;;;;;;;;;;;;;5042977;28;19929;-66
2023/07/24 06:13:10;;;;;;;;;;;;;;;;;;5048222;28;20007;-66
2023/07/24 06:15:36;;;;;;;;;;;;;;;;;;5034221;28;19920;-67
2023/07/24 06:18:02;;;;;;;;;;;;;;;;;;5051942;28;19928;-66
2023/07/24 06:20:28;;;;;;;;;;;;;;;;;;5052328;28;20358;-67
2023/07/24 06:22:54;;;;;;;;;;;;;;;;;;5052169;28;20010;-67
2023/07/24 06:25:19;;;;;;;;;;;;;;;;;;5031269;28;19960;-66
2023/07/24 06:27:45;;;;;;;;;;;;;;;;;;5032211;28;19927;-66
2023/07/24 06:30:11;;;;;;;;;;;;;;;;;;5050576;28;19924;-66
2023/07/24 06:32:37;;;;;;;;;;;;;;;;;;5034687;28;20019;-66
2023/07/24 06:35:03;;;;;;;;;;;;;;;;;;5033349;28;19921;-67
2023/07/24 06:37:29;;;;;;;;;;;;;;;;;;5014187;28;19921;-66
2023/07/24 06:39:55;;;;;;;;;;;;;;;;;;5032135;28;20264;-66
2023/07/24 06:42:21;;;;;;;;;;;;;;;;;;5031786;28;19956;-66
2023/07/24 06:44:50;;;;;;;;;;;;;;;;;;5041140;28;20394;-67
2023/07/24 06:47:16;;;;;;;;;;;;;;;;;;5051423;28;19920;-67
2023/07/24 06:49:42;;;;;;;;;;;;;;;;;;5051931;28;19971;-67
2023/07/24 06:52:08;;;;;;;;;;;;;;;;;;5028793;28;19934;-67
2023/07/24 06:54:34;;;;;;;;;;;;;;;;;;5051594;28;19920;-67
2023/07/24 06:57:00;;;;;;;;;;;;;;;;;;5033724;28;19928;-66
2023/07/24 06:59:25;;;;;;;;;;;;;;;;;;5033668;28;19929;-66
2023/07/24 07:01:51;;;;;;;;;;;;;;;;;;5049844;28;19928;-66
2023/07/24 07:04:17;;;;;;;;;;;;;;;;;;5051079;28;20020;-66
2023/07/24 07:06:43;;;;;;;;;;;;;;;;;;5051089;28;19925;-66
2023/07/24 07:09:09;;;;;;;;;;;;;;;;;;5034002;28;19925;-67
2023/07/24 07:11:35;;;;;;;;;;;;;;;;;;5051523;28;19928;-67
2023/07/24 07:14:01;;;;;;;;;;;;;;;;;;5033627;28;19921;-66
2023/07/24 07:16:27;;;;;;;;;;;;;;;;;;5055534;28;19932;-66
2023/07/24 07:18:53;;;;;;;;;;;;;;;;;;5037800;28;20505;-66
2023/07/24 07:21:18;;;;;;;;;;;;;;;;;;5055763;28;19924;-66
2023/07/24 07:23:44;;;;;;;;;;;;;;;;;;5036452;28;19999;-67
2023/07/24 07:26:10;;;;;;;;;;;;;;;;;;5034431;28;20578;-66
2023/07/24 07:28:37;;;;;;;;;;;;;;;;;;5034607;28;19925;-67
2023/07/24 07:31:03;;;;;;;;;;;;;;;;;;5036953;28;20282;-65
2023/07/24 07:33:29;;;;;;;;;;;;;;;;;;5055014;28;19921;-66
2023/07/24 07:35:55;;;;;;;;;;;;;;;;;;5052604;28;20430;-67
2023/07/24 07:38:22;;;;;;;;;;;;;;;;;;5042897;28;19925;-67
2023/07/24 07:40:48;;;;;;;;;;;;;;;;;;5054662;28;19924;-66
2023/07/24 07:43:14;;;;;;;;;;;;;;;;;;5054462;28;19921;-67
2023/07/24 07:45:40;;;;;;;;;;;;;;;;;;5054601;28;19928;-67
2023/07/24 07:48:06;;;;;;;;;;;;;;;;;;5054050;28;19927;-66
2023/07/24 07:50:32;;;;;;;;;;;;;;;;;;5042624;28;19924;-67
2023/07/24 07:52:58;;;;;;;;;;;;;;;;;;5054122;28;19947;-67
2023/07/24 07:55:23;;;;;;;;;;;;;;;;;;5055237;28;19920;-66
2023/07/24 07:57:49;;;;;;;;;;;;;;;;;;5054764;28;19921;-67
2023/07/24 08:00:15;;;;;;;;;;;;;;;;;;5053362;28;19936;-66
2023/07/24 08:02:41;;;;;;;;;;;;;;;;;;5054929;28;19921;-66
2023/07/24 08:05:07;;;;;;;;;;;;;;;;;;5054679;28;20271;-66
2023/07/24 08:07:33;;;;;;;;;;;;;;;;;;5048427;28;19939;-66
2023/07/24 08:09:59;;;;;;;;;;;;;;;;;;5036388;28;20518;-66
2023/07/24 08:12:25;;;;;;;;;;;;;;;;;;5054555;28;19921;-66
2023/07/24 08:14:51;;;;;;;;;;;;;;;;;;5054524;28;19943;-66
2023/07/24 08:17:17;;;;;;;;;;;;;;;;;;5036505;28;19920;-65
2023/07/24 08:19:43;;;;;;;;;;;;;;;;;;5036505;28;19928;-66
2023/07/24 08:22:08;;;;;;;;;;;;;;;;;;5054498;28;19921;-67
2023/07/24 08:24:35;;;;;;;;;;;;;;;;;;5053195;28;19927;-66
2023/07/24 08:27:01;;;;;;;;;;;;;;;;;;5051699;28;19932;-67
2023/07/24 08:29:27;;;;;;;;;;;;;;;;;;5052559;28;19925;-67
2023/07/24 08:31:53;;;;;;;;;;;;;;;;;;5052997;28;19921;-66
2023/07/24 08:34:19;;;;;;;;;;;;;;;;;;5035073;28;19920;-66
2023/07/24 08:36:44;;;;;;;;;;;;;;;;;;5051958;28;19932;-65
2023/07/24 08:39:10;;;;;;;;;;;;;;;;;;5054000;28;19929;-67
2023/07/24 08:41:37;;;;;;;;;;;;;;;;;;5054235;28;20367;-66
2023/07/24 08:44:03;;;;;;;;;;;;;;;;;;5045911;28;19960;-67
2023/07/24 08:46:29;;;;;;;;;;;;;;;;;;5053027;28;19978;-67
2023/07/24 08:48:55;;;;;;;;;;;;;;;;;;5051790;28;19974;-67
2023/07/24 08:51:22;;;;;;;;;;;;;;;;;;5053454;28;20378;-67
2023/07/24 08:53:48;;;;;;;;;;;;;;;;;;5052942;28;20349;-66
2023/07/24 08:56:14;;;;;;;;;;;;;;;;;;5051599;28;19921;-66
2023/07/24 08:58:40;;;;;;;;;;;;;;;;;;5032655;28;20406;-66
2023/07/24 09:01:06;;;;;;;;;;;;;;;;;;5052691;28;19975;-67
2023/07/24 09:03:32;;;;;;;;;;;;;;;;;;5038002;28;20020;-66
2023/07/24 09:05:58;;;;;;;;;;;;;;;;;;5031841;28;19928;-66
2023/07/24 09:08:23;;;;;;;;;;;;;;;;;;5031264;28;20012;-66
2023/07/24 09:10:49;;;;;;;;;;;;;;;;;;5034238;28;20642;-65
2023/07/24 09:13:15;;;;;;;;;;;;;;;;;;5052822;28;19925;-66
2023/07/24 09:15:41;;;;;;;;;;;;;;;;;;5044727;28;19929;-66
2023/07/24 09:18:07;;;;;;;;;;;;;;;;;;5052620;28;20401;-64
2023/07/24 09:20:33;;;;;;;;;;;;;;;;;;5047864;28;19990;-64
2023/07/24 09:22:59;;;;;;;;;;;;;;;;;;5034032;23;19952;-68
2023/07/24 09:25:25;;;;;;;;;;;;;;;;;;5014104;28;19921;-68
2023/07/24 09:27:51;;;;;;;;;;;;;;;;;;5035537;28;19994;-67
2023/07/24 09:30:19;;;;;;;;;;;;;;;;;;5021366;28;19921;-68
2023/07/24 09:32:45;;;;;;;;;;;;;;;;;;5013942;28;19932;-66
2023/07/24 09:35:11;;;;;;;;;;;;;;;;;;5024482;28;20317;-65
2023/07/24 09:37:36;;;;;;;;;;;;;;;;;;5020061;28;19928;-66
2023/07/24 09:40:02;;;;;;;;;;;;;;;;;;5028018;28;19928;-66
2023/07/24 09:42:28;;;;;;;;;;;;;;;;;;5033315;28;19929;-66
2023/07/24 09:44:54;;;;;;;;;;;;;;;;;;5031541;28;19921;-66
2023/07/24 09:47:20;;;;;;;;;;;;;;;;;;5030599;28;19925;-66
2023/07/24 09:49:46;;;;;;;;;;;;;;;;;;5044113;28;19929;-66
2023/07/24 09:52:12;;;;;;;;;;;;;;;;;;5032371;28;20347;-66
2023/07/24 09:54:40;;;;;;;;;;;;;;;;;;5045459;28;19967;-66
2023/07/24 09:57:06;;;;;;;;;;;;;;;;;;5024591;28;19964;-66
2023/07/24 09:59:32;;;;;;;;;;;;;;;;;;5028997;28;19973;-66
2023/07/24 10:01:58;;;;;;;;;;;;;;;;;;5035500;28;20270;-66
2023/07/24 10:04:24;;;;;;;;;;;;;;;;;;5031159;28;19921;-66
2023/07/24 10:06:50;;;;;;;;;;;;;;;;;;5045246;28;19933;-65
2023/07/24 10:09:18;;;;;;;;;;;;;;;;;;5029275;28;19921;-66
2023/07/24 10:11:45;;;;;;;;;;;;;;;;;;5014224;28;19925;-65
2023/07/24 10:14:11;;;;;;;;;;;;;;;;;;5035313;28;19970;-66
2023/07/24 10:16:37;;;;;;;;;;;;;;;;;;5038167;28;19925;-64
2023/07/24 10:19:03;;;;;;;;;;;;;;;;;;5029800;28;19929;-63
2023/07/24 10:21:29;;;;;;;;;;;;;;;;;;5031167;28;19959;-63
2023/07/24 10:23:55;;;;;;;;;;;;;;;;;;5024822;28;20330;-64
2023/07/24 10:26:21;;;;;;;;;;;;;;;;;;5032053;28;20248;-63
2023/07/24 10:28:47;;;;;;;;;;;;;;;;;;5027445;28;20370;-63
2023/07/24 10:31:13;;;;;;;;;;;;;;;;;;5030658;28;20307;-63
2023/07/24 10:33:40;;;;;;;;;;;;;;;;;;5032938;28;20019;-63
2023/07/24 10:36:08;;;;;;;;;;;;;;;;;;5031463;28;19921;-63
2023/07/24 10:38:35;;;;;;;;;;;;;;;;;;5028325;28;19963;-63
2023/07/24 10:41:01;;;;;;;;;;;;;;;;;;5043465;28;20846;-63
2023/07/24 10:43:27;;;;;;;;;;;;;;;;;;5033950;28;20016;-63
2023/07/24 10:45:53;;;;;;;;;;;;;;;;;;5030915;28;20008;-63
2023/07/24 10:48:19;;;;;;;;;;;;;;;;;;5032219;28;19994;-62
2023/07/24 10:50:45;;;;;;;;;;;;;;;;;;5033030;28;19928;-63
2023/07/24 10:53:11;;;;;;;;;;;;;;;;;;5031736;28;19925;-63
2023/07/24 10:55:37;;;;;;;;;;;;;;;;;;5027171;28;20456;-63
2023/07/24 10:58:03;;;;;;;;;;;;;;;;;;5019467;28;20008;-63
2023/07/24 11:00:31;;;;;;;;;;;;;;;;;;5027916;28;22315;-63
2023/07/24 11:02:56;;;;;;;;;;;;;;;;;;5032829;28;19928;-63
2023/07/24 11:05:22;;;;;;;;;;;;;;;;;;5028126;28;19925;-63
2023/07/24 11:07:48;;;;;;;;;;;;;;;;;;5011867;28;19967;-63
2023/07/24 11:10:14;;;;;;;;;;;;;;;;;;5026230;28;20392;-63
2023/07/24 11:12:40;;;;;;;;;;;;;;;;;;5018337;28;20008;-63
2023/07/24 11:15:06;;;;;;;;;;;;;;;;;;5031005;28;19931;-63
2023/07/24 11:17:32;;;;;;;;;;;;;;;;;;5021701;28;20274;-63
2023/07/24 11:19:58;;;;;;;;;;;;;;;;;;5033692;28;19929;-64
2023/07/24 11:22:24;;;;;;;;;;;;;;;;;;5034621;28;19982;-65
2023/07/24 11:24:50;;;;;;;;;;;;;;;;;;5029332;28;19955;-65
2023/07/24 11:27:16;;;;;;;;;;;;;;;;;;5019995;28;20423;-64
2023/07/24 11:29:42;;;;;;;;;;;;;;;;;;5024549;28;19975;-64
2023/07/24 11:32:08;;;;;;;;;;;;;;;;;;5012367;28;20343;-64
2023/07/24 11:34:34;;;;;;;;;;;;;;;;;;5023735;28;19925;-63
2023/07/24 11:37:00;;;;;;;;;;;;;;;;;;5026622;28;19949;-63
2023/07/24 11:39:25;;;;;;;;;;;;;;;;;;5027569;28;19925;-62
2023/07/24 11:41:51;;;;;;;;;;;;;;;;;;5014035;28;19948;-63
2023/07/24 11:44:19;;;;;;;;;;;;;;;;;;5028438;28;19925;-63
2023/07/24 11:46:46;;;;;;;;;;;;;;;;;;5031840;28;19925;-63
2023/07/24 11:49:12;;;;;;;;;;;;;;;;;;5027155;28;19921;-62
2023/07/24 11:51:38;;;;;;;;;;;;;;;;;;5033971;28;20326;-63
2023/07/24 11:54:04;;;;;;;;;;;;;;;;;;5019726;28;19924;-63
2023/07/24 11:56:30;;;;;;;;;;;;;;;;;;5030305;28;19929;-63
2023/07/24 11:58:56;;;;;;;;;;;;;;;;;;5019729;28;20038;-62
2023/07/24 12:01:22;;;;;;;;;;;;;;;;;;5009505;28;19925;-63
2023/07/24 12:03:49;;;;;;;;;;;;;;;;;;5026007;28;19922;-62
2023/07/24 12:06:16;;;;;;;;;;;;;;;;;;5026491;28;20403;-62
2023/07/24 12:08:42;;;;;;;;;;;;;;;;;;5021862;28;19921;-62
2023/07/24 12:11:08;;;;;;;;;;;;;;;;;;5032068;28;19944;-63
2023/07/24 12:13:34;;;;;;;;;;;;;;;;;;5028558;28;19960;-63
2023/07/24 12:16:00;;;;;;;;;;;;;;;;;;5022234;28;20023;-63
2023/07/24 12:18:26;;;;;;;;;;;;;;;;;;5013225;28;20329;-63
2023/07/24 12:20:51;;;;;;;;;;;;;;;;;;5021993;28;19921;-63
2023/07/24 12:23:17;;;;;;;;;;;;;;;;;;5026467;28;19929;-63
2023/07/24 12:25:43;;;;;;;;;;;;;;;;;;5029135;28;19925;-63
2023/07/24 12:28:09;;;;;;;;;;;;;;;;;;5022198;28;20294;-63
2023/07/24 12:30:35;;;;;;;;;;;;;;;;;;5026351;28;20442;-63
2023/07/24 12:33:01;;;;;;;;;;;;;;;;;;5024096;28;20070;-63
2023/07/24 12:35:27;;;;;;;;;;;;;;;;;;5027944;28;19921;-63
2023/07/24 12:37:53;;;;;;;;;;;;;;;;;;5025118;28;19925;-63
2023/07/24 12:40:19;;;;;;;;;;;;;;;;;;5031167;28;19925;-63
2023/07/24 12:42:45;;;;;;;;;;;;;;;;;;5046133;28;19932;-63
2023/07/24 12:45:11;;;;;;;;;;;;;;;;;;5029435;28;21072;-63
2023/07/24 12:47:36;;;;;;;;;;;;;;;;;;5032818;28;19975;-62
2023/07/24 12:50:02;;;;;;;;;;;;;;;;;;5032518;28;20363;-62
2023/07/24 12:52:28;;;;;;;;;;;;;;;;;;5030064;28;20444;-62
2023/07/24 12:54:54;;;;;;;;;;;;;;;;;;5033936;28;19921;-63
2023/07/24 12:57:20;;;;;;;;;;;;;;;;;;5031898;28;19932;-62
2023/07/24 12:59:46;;;;;;;;;;;;;;;;;;5029017;28;19933;-62
2023/07/24 13:02:12;;;;;;;;;;;;;;;;;;5044741;28;19925;-63
2023/07/24 13:04:38;;;;;;;;;;;;;;;;;;5033936;28;20429;-62
2023/07/24 13:07:04;;;;;;;;;;;;;;;;;;5029822;28;20271;-62
2023/07/24 13:09:30;;;;;;;;;;;;;;;;;;5033515;28;20685;-62
2023/07/24 13:11:56;;;;;;;;;;;;;;;;;;5030272;28;19972;-63
2023/07/24 13:14:23;;;;;;;;;;;;;;;;;;5032303;28;19921;-62
2023/07/24 13:16:49;;;;;;;;;;;;;;;;;;5030938;28;19925;-63
2023/07/24 13:19:15;;;;;;;;;;;;;;;;;;5018155;28;20283;-62
2023/07/24 13:21:42;;;;;;;;;;;;;;;;;;5020946;28;19933;-62
2023/07/24 13:24:08;;;;;;;;;;;;;;;;;;5032291;28;20276;-62
2023/07/24 13:26:34;;;;;;;;;;;;;;;;;;5031380;28;19921;-62
2023/07/24 13:29:00;;;;;;;;;;;;;;;;;;5030218;28;19932;-62
2023/07/24 13:31:28;;;;;;;;;;;;;;;;;;5012638;28;19929;-62
2023/07/24 13:33:54;;;;;;;;;;;;;;;;;;5028615;28;19994;-62
2023/07/24 13:36:20;;;;;;;;;;;;;;;;;;5028672;28;19995;-63
2023/07/24 13:38:45;;;;;;;;;;;;;;;;;;5022504;28;19951;-63
2023/07/24 13:41:11;;;;;;;;;;;;;;;;;;5025939;28;19921;-63
2023/07/24 13:43:37;;;;;;;;;;;;;;;;;;5009614;28;19948;-63
2023/07/24 13:46:03;;;;;;;;;;;;;;;;;;5026000;28;19925;-63
2023/07/24 13:48:29;;;;;;;;;;;;;;;;;;5027098;28;20352;-63
2023/07/24 13:50:55;;;;;;;;;;;;;;;;;;5024645;28;19921;-63
2023/07/24 13:53:21;;;;;;;;;;;;;;;;;;5025418;28;20438;-63
2023/07/24 13:55:47;;;;;;;;;;;;;;;;;;5026801;28;19929;-63
2023/07/24 13:58:13;;;;;;;;;;;;;;;;;;5029451;28;19924;-63
2023/07/24 14:00:39;;;;;;;;;;;;;;;;;;5035618;28;20352;-63
2023/07/24 14:03:05;;;;;;;;;;;;;;;;;;5028031;28;20020;-63
2023/07/24 14:05:31;;;;;;;;;;;;;;;;;;5030663;28;19933;-62
2023/07/24 14:07:57;;;;;;;;;;;;;;;;;;5032432;28;19921;-62
2023/07/24 14:10:23;;;;;;;;;;;;;;;;;;4998404;28;19928;-62
2023/07/24 14:12:49;;;;;;;;;;;;;;;;;;4985398;28;19926;-62
2023/07/24 14:15:14;;;;;;;;;;;;;;;;;;5033380;28;19968;-62
2023/07/24 14:17:40;;;;;;;;;;;;;;;;;;5031107;28;20351;-62
2023/07/24 14:20:06;;;;;;;;;;;;;;;;;;5031945;28;19932;-62
2023/07/24 14:22:32;;;;;;;;;;;;;;;;;;5028939;28;20326;-63
2023/07/24 14:24:58;;;;;;;;;;;;;;;;;;5029381;28;19947;-63
2023/07/24 14:27:24;;;;;;;;;;;;;;;;;;5027812;28;19924;-63
2023/07/24 14:29:50;;;;;;;;;;;;;;;;;;5029336;28;19979;-63
2023/07/24 14:32:16;;;;;;;;;;;;;;;;;;5030914;28;20446;-63
2023/07/24 14:34:42;;;;;;;;;;;;;;;;;;5026687;28;19944;-63
2023/07/24 14:37:07;;;;;;;;;;;;;;;;;;5021203;28;19948;-62
2023/07/24 14:39:33;;;;;;;;;;;;;;;;;;5021862;28;19925;-62
2023/07/24 14:41:59;;;;;;;;;;;;;;;;;;5026853;28;20386;-62
2023/07/24 14:44:25;;;;;;;;;;;;;;;;;;5028880;28;19932;-62
2023/07/24 14:46:51;;;;;;;;;;;;;;;;;;5031886;28;20324;-63
2023/07/24 14:49:17;;;;;;;;;;;;;;;;;;5029732;28;19947;-62
2023/07/24 14:51:43;;;;;;;;;;;;;;;;;;5031487;28;19920;-63
2023/07/24 14:54:09;;;;;;;;;;;;;;;;;;5018268;28;19925;-63
2023/07/24 14:56:35;;;;;;;;;;;;;;;;;;5022777;28;20421;-62
2023/07/24 14:59:00;;;;;;;;;;;;;;;;;;5028754;28;19928;-62
2023/07/24 15:01:28;;;;;;;;;;;;;;;;;;5046712;28;19944;-62
2023/07/24 15:03:54;;;;;;;;;;;;;;;;;;5036400;28;19928;-63
2023/07/24 15:06:20;;;;;;;;;;;;;;;;;;5025551;28;19929;-63
2023/07/24 15:08:46;;;;;;;;;;;;;;;;;;5012092;28;20406;-63
2023/07/24 15:11:13;;;;;;;;;;;;;;;;;;5011641;28;20436;-63
2023/07/24 15:13:39;;;;;;;;;;;;;;;;;;5038544;28;20023;-64
2023/07/24 15:16:05;;;;;;;;;;;;;;;;;;5023759;28;20004;-64
2023/07/24 15:18:31;;;;;;;;;;;;;;;;;;5023944;28;19925;-64
2023/07/24 15:20:57;;;;;;;;;;;;;;;;;;5025529;28;19928;-64
2023/07/24 15:23:23;;;;;;;;;;;;;;;;;;5038518;28;20376;-64
2023/07/24 15:25:48;;;;;;;;;;;;;;;;;;5029561;28;19968;-64
2023/07/24 15:28:14;;;;;;;;;;;;;;;;;;5037016;28;19921;-65
2023/07/24 15:30:40;;;;;;;;;;;;;;;;;;5006799;28;20374;-66
2023/07/24 15:33:06;;;;;;;;;;;;;;;;;;5027389;28;19999;-65
2023/07/24 15:35:32;;;;;;;;;;;;;;;;;;5031350;28;19925;-65
2023/07/24 15:37:58;;;;;;;;;;;;;;;;;;5034771;28;19964;-64
2023/07/24 15:40:24;;;;;;;;;;;;;;;;;;5035127;28;20020;-64
2023/07/24 15:42:50;;;;;;;;;;;;;;;;;;5031072;28;20466;-65
2023/07/24 15:45:16;;;;;;;;;;;;;;;;;;5015053;28;19921;-65
2023/07/24 15:47:42;;;;;;;;;;;;;;;;;;5028988;28;20272;-65
2023/07/24 15:50:07;;;;;;;;;;;;;;;;;;5032724;28;19921;-64
2023/07/24 15:52:33;;;;;;;;;;;;;;;;;;5033972;28;19929;-64
2023/07/24 15:54:59;;;;;;;;;;;;;;;;;;5032490;28;19928;-64
2023/07/24 15:57:25;;;;;;;;;;;;;;;;;;5032186;28;20008;-65
2023/07/24 15:59:51;;;;;;;;;;;;;;;;;;5031972;28;20012;-65
2023/07/24 16:02:18;;;;;;;;;;;;;;;;;;5033732;28;19929;-64
2023/07/24 16:04:44;;;;;;;;;;;;;;;;;;5031767;28;20255;-64
2023/07/24 16:07:10;;;;;;;;;;;;;;;;;;5033055;28;19921;-64
2023/07/24 16:09:36;;;;;;;;;;;;;;;;;;5030122;28;19925;-64
2023/07/24 16:12:02;;;;;;;;;;;;;;;;;;5046586;28;19929;-64
2023/07/24 16:14:28;;;;;;;;;;;;;;;;;;5018949;28;19928;-64
2023/07/24 16:16:54;;;;;;;;;;;;;;;;;;5033148;28;20024;-64
2023/07/24 16:19:20;;;;;;;;;;;;;;;;;;5032116;28;19929;-64
2023/07/24 16:21:46;;;;;;;;;;;;;;;;;;5033575;28;19932;-64
2023/07/24 16:24:12;;;;;;;;;;;;;;;;;;5032633;28;19975;-64
2023/07/24 16:26:37;;;;;;;;;;;;;;;;;;5028240;28;19963;-64
2023/07/24 16:29:03;;;;;;;;;;;;;;;;;;5032229;28;19925;-64
2023/07/24 16:31:29;;;;;;;;;;;;;;;;;;5031952;28;19921;-65
2023/07/24 16:33:55;;;;;;;;;;;;;;;;;;5032487;28;20363;-65
2023/07/24 16:36:21;;;;;;;;;;;;;;;;;;5022660;28;19933;-64